Vano — SBNM — position and weather

sailwx.info

Track history (hours):
 
Tides and Currents Weather Stations Pressure Air Temp Water Temp Dewpoint Dewpoint Depression Visibility Wind Speed Wind Dir Waves Ship Positions

Vano

Last reported at 2015-Apr-18 14:30 UTC. Time now 2015-Apr-19 10:57 UTC.
Position N 59°21' E 018°14'.

Length 38 m; draft 1.8 m.

Type: Passenger vessel. MMSI: 265520400.

Date/timePositionNaut miles runAvg speedWind from/ knotsBaromVisibWave heightAir tempDewpointWater temp
2015-Apr-18 14:30N 59°21' E 018°14'5 5.7
2015-Apr-18 13:33N 59°20' E 018°04'0 0.2
2015-Apr-18 12:33N 59°20' E 018°05'6 1.0
2015-Apr-18 06:33N 59°22' E 018°15'6 5.8
2015-Apr-18 05:34N 59°20' E 018°04'0 0.0
2015-Apr-18 04:34N 59°20' E 018°04'0 0.0
2015-Apr-18 03:33N 59°20' E 018°04'0 0.0
2015-Apr-18 02:34N 59°20' E 018°04'0 0.0
2015-Apr-18 01:34N 59°20' E 018°04'0 0.0
2015-Apr-18 00:34N 59°20' E 018°04'0 0.0
2015-Apr-17 23:33N 59°20' E 018°04'0 0.0
2015-Apr-17 22:33N 59°20' E 018°04'3 2.7
2015-Apr-17 21:33N 59°19' E 018°10'6 1.4
2015-Apr-17 17:06N 59°22' E 018°20'611.4
2015-Apr-17 16:33N 59°19' E 018°10'3 2.6
2015-Apr-17 15:33N 59°20' E 018°05'6 6.2
2015-Apr-17 14:33N 59°22' E 018°16'1 0.2
2015-Apr-17 07:20N 59°21' E 018°15'5 6.9
2015-Apr-17 06:33N 59°20' E 018°04'0 0.0
2015-Apr-17 05:33N 59°20' E 018°04'0 0.0
2015-Apr-17 04:33N 59°20' E 018°04'0 0.0
2015-Apr-17 03:33N 59°20' E 018°04'0 0.0
2015-Apr-17 02:33N 59°20' E 018°04'0 0.0
2015-Apr-17 01:33N 59°20' E 018°04'0 0.0
2015-Apr-17 00:33N 59°20' E 018°04'0 0.0
2015-Apr-16 23:33N 59°20' E 018°04'0 0.0
2015-Apr-16 22:33N 59°20' E 018°04'0 0.0
2015-Apr-16 21:33N 59°20' E 018°04'0 0.0
2015-Apr-16 20:33N 59°20' E 018°04'0 0.0
2015-Apr-16 19:33N 59°20' E 018°04'0 0.0
2015-Apr-16 18:33N 59°20' E 018°04'0 0.0
2015-Apr-16 17:33N 59°20' E 018°04'0 0.0
2015-Apr-16 16:33N 59°20' E 018°04'0 0.0
2015-Apr-16 15:33N 59°20' E 018°04'0 0.0
2015-Apr-16 14:33N 59°20' E 018°04'0 0.0
2015-Apr-16 13:33N 59°20' E 018°04'0 0.0
2015-Apr-16 12:33N 59°20' E 018°04'0 0.0
2015-Apr-16 11:33N 59°20' E 018°04'0 0.0
2015-Apr-16 10:33N 59°20' E 018°04'0 0.0
2015-Apr-16 09:33N 59°20' E 018°04'0 0.0
2015-Apr-16 08:33N 59°20' E 018°04'0 0.3
2015-Apr-16 07:33N 59°19' E 018°05'0 0.0
2015-Apr-15 15:14N 59°20' E 018°05'0 0.0
2015-Apr-15 14:33N 59°20' E 018°05'0 0.0
2015-Apr-15 13:33N 59°20' E 018°05'0 0.0
2015-Apr-15 12:33N 59°20' E 018°05'0 0.0
2015-Apr-15 11:33N 59°20' E 018°05'0 0.0
2015-Apr-15 10:33N 59°20' E 018°05'0 0.0
2015-Apr-15 09:33N 59°20' E 018°05'0 0.0
2015-Apr-15 08:33N 59°20' E 018°05'0 0.0
2015-Apr-15 07:33N 59°20' E 018°05'0 0.0
2015-Apr-15 06:33N 59°20' E 018°05'0 0.0
2015-Apr-15 05:33N 59°20' E 018°05'0 0.0
2015-Apr-15 04:33N 59°20' E 018°05'0 0.0
2015-Apr-15 03:33N 59°20' E 018°05'0 0.0
2015-Apr-15 02:33N 59°20' E 018°05'0 0.0
2015-Apr-15 01:33N 59°20' E 018°05'0 0.0
2015-Apr-15 00:33N 59°20' E 018°05'0 0.0
2015-Apr-14 23:33N 59°20' E 018°05'0 0.0
2015-Apr-14 22:33N 59°20' E 018°05'0 0.0
2015-Apr-14 21:33N 59°20' E 018°05'0 0.0
2015-Apr-14 20:33N 59°20' E 018°05'0 0.0
2015-Apr-14 19:33N 59°20' E 018°05'0 0.0
2015-Apr-14 18:33N 59°20' E 018°05'0 0.0
2015-Apr-14 17:33N 59°20' E 018°05'0 0.0
2015-Apr-14 16:33N 59°20' E 018°05'0 0.0
2015-Apr-14 15:33N 59°20' E 018°05'0 0.0
2015-Apr-14 14:34N 59°20' E 018°05'0 0.1
2015-Apr-14 13:33N 59°20' E 018°05'0 0.0
2015-Apr-14 12:33N 59°20' E 018°05'0 0.0
2015-Apr-14 11:33N 59°20' E 018°05'1 0.7
2015-Apr-14 10:34N 59°19' E 018°05'1 0.7
2015-Apr-14 09:33N 59°20' E 018°04'0 0.0
2015-Apr-14 08:33N 59°20' E 018°04'  
2015-Apr-08 15:23N 59°20' E 018°04'0 0.0
2015-Apr-08 14:33N 59°20' E 018°04'  
Track history (hours):
 
Tides and Currents Weather Stations Pressure Air Temp Water Temp Dewpoint Dewpoint Depression Visibility Wind Speed Wind Dir Waves Ship Positions

Vano

Last reported at 2015-Apr-18 14:30 UTC. Time now 2015-Apr-19 10:57 UTC.
Position N 59°21' E 018°14'.

Length 38 m; draft 1.8 m.

Type: Passenger vessel. MMSI: 265520400.

Date/timePositionNaut miles runAvg speedWind from/ knotsBaromVisibWave heightAir tempDewpointWater temp
2015-Apr-18 14:30N 59°21' E 018°14'5 5.7
2015-Apr-18 13:33N 59°20' E 018°04'0 0.2
2015-Apr-18 12:33N 59°20' E 018°05'6 1.0
2015-Apr-18 06:33N 59°22' E 018°15'6 5.8
2015-Apr-18 05:34N 59°20' E 018°04'0 0.0
2015-Apr-18 04:34N 59°20' E 018°04'0 0.0
2015-Apr-18 03:33N 59°20' E 018°04'0 0.0
2015-Apr-18 02:34N 59°20' E 018°04'0 0.0
2015-Apr-18 01:34N 59°20' E 018°04'0 0.0
2015-Apr-18 00:34N 59°20' E 018°04'0 0.0
2015-Apr-17 23:33N 59°20' E 018°04'0 0.0
2015-Apr-17 22:33N 59°20' E 018°04'3 2.7
2015-Apr-17 21:33N 59°19' E 018°10'6 1.4
2015-Apr-17 17:06N 59°22' E 018°20'611.4
2015-Apr-17 16:33N 59°19' E 018°10'3 2.6
2015-Apr-17 15:33N 59°20' E 018°05'6 6.2
2015-Apr-17 14:33N 59°22' E 018°16'1 0.2
2015-Apr-17 07:20N 59°21' E 018°15'5 6.9
2015-Apr-17 06:33N 59°20' E 018°04'0 0.0
2015-Apr-17 05:33N 59°20' E 018°04'0 0.0
2015-Apr-17 04:33N 59°20' E 018°04'0 0.0
2015-Apr-17 03:33N 59°20' E 018°04'0 0.0
2015-Apr-17 02:33N 59°20' E 018°04'0 0.0
2015-Apr-17 01:33N 59°20' E 018°04'0 0.0
2015-Apr-17 00:33N 59°20' E 018°04'0 0.0
2015-Apr-16 23:33N 59°20' E 018°04'0 0.0
2015-Apr-16 22:33N 59°20' E 018°04'0 0.0
2015-Apr-16 21:33N 59°20' E 018°04'0 0.0
2015-Apr-16 20:33N 59°20' E 018°04'0 0.0
2015-Apr-16 19:33N 59°20' E 018°04'0 0.0
2015-Apr-16 18:33N 59°20' E 018°04'0 0.0
2015-Apr-16 17:33N 59°20' E 018°04'0 0.0
2015-Apr-16 16:33N 59°20' E 018°04'0 0.0
2015-Apr-16 15:33N 59°20' E 018°04'0 0.0
2015-Apr-16 14:33N 59°20' E 018°04'0 0.0
2015-Apr-16 13:33N 59°20' E 018°04'0 0.0
2015-Apr-16 12:33N 59°20' E 018°04'0 0.0
2015-Apr-16 11:33N 59°20' E 018°04'0 0.0
2015-Apr-16 10:33N 59°20' E 018°04'0 0.0
2015-Apr-16 09:33N 59°20' E 018°04'0 0.0
2015-Apr-16 08:33N 59°20' E 018°04'0 0.3
2015-Apr-16 07:33N 59°19' E 018°05'0 0.0
2015-Apr-15 15:14N 59°20' E 018°05'0 0.0
2015-Apr-15 14:33N 59°20' E 018°05'0 0.0
2015-Apr-15 13:33N 59°20' E 018°05'0 0.0
2015-Apr-15 12:33N 59°20' E 018°05'0 0.0
2015-Apr-15 11:33N 59°20' E 018°05'0 0.0
2015-Apr-15 10:33N 59°20' E 018°05'0 0.0
2015-Apr-15 09:33N 59°20' E 018°05'0 0.0
2015-Apr-15 08:33N 59°20' E 018°05'0 0.0
2015-Apr-15 07:33N 59°20' E 018°05'0 0.0
2015-Apr-15 06:33N 59°20' E 018°05'0 0.0
2015-Apr-15 05:33N 59°20' E 018°05'0 0.0
2015-Apr-15 04:33N 59°20' E 018°05'0 0.0
2015-Apr-15 03:33N 59°20' E 018°05'0 0.0
2015-Apr-15 02:33N 59°20' E 018°05'0 0.0
2015-Apr-15 01:33N 59°20' E 018°05'0 0.0
2015-Apr-15 00:33N 59°20' E 018°05'0 0.0
2015-Apr-14 23:33N 59°20' E 018°05'0 0.0
2015-Apr-14 22:33N 59°20' E 018°05'0 0.0
2015-Apr-14 21:33N 59°20' E 018°05'0 0.0
2015-Apr-14 20:33N 59°20' E 018°05'0 0.0
2015-Apr-14 19:33N 59°20' E 018°05'0 0.0
2015-Apr-14 18:33N 59°20' E 018°05'0 0.0
2015-Apr-14 17:33N 59°20' E 018°05'0 0.0
2015-Apr-14 16:33N 59°20' E 018°05'0 0.0
2015-Apr-14 15:33N 59°20' E 018°05'0 0.0
2015-Apr-14 14:34N 59°20' E 018°05'0 0.1
2015-Apr-14 13:33N 59°20' E 018°05'0 0.0
2015-Apr-14 12:33N 59°20' E 018°05'0 0.0
2015-Apr-14 11:33N 59°20' E 018°05'1 0.7
2015-Apr-14 10:34N 59°19' E 018°05'1 0.7
2015-Apr-14 09:33N 59°20' E 018°04'0 0.0
2015-Apr-14 08:33N 59°20' E 018°04'  
2015-Apr-08 15:23N 59°20' E 018°04'0 0.0
2015-Apr-08 14:33N 59°20' E 018°04'  

Dump ship's entire track history